createdAt,value
2022-12-26T00:02:08.725Z,26.63
2022-12-26T00:04:51.274Z,29.90
2022-12-26T00:07:26.165Z,25.48
2022-12-26T00:09:56.884Z,30.13
2022-12-26T00:12:27.431Z,39.97
2022-12-26T00:14:57.941Z,30.55
2022-12-26T00:17:28.535Z,29.38
2022-12-26T00:19:59.252Z,23.00
2022-12-26T00:22:32.463Z,28.15
2022-12-26T00:25:03.227Z,32.95
2022-12-26T00:27:34.342Z,37.80
2022-12-26T00:30:04.845Z,49.92
2022-12-26T00:32:35.770Z,58.95
2022-12-26T00:35:06.303Z,25.88
2022-12-26T00:37:39.801Z,21.00
2022-12-26T00:40:11.854Z,17.95
2022-12-26T00:42:43.358Z,18.75
2022-12-26T00:45:14.307Z,22.48
2022-12-26T00:47:44.889Z,25.75
2022-12-26T00:50:16.122Z,27.27
2022-12-26T00:52:49.781Z,25.65
2022-12-26T00:55:20.427Z,28.70
2022-12-26T00:57:51.024Z,30.30
2022-12-26T01:00:21.768Z,29.02
2022-12-26T01:02:52.505Z,21.00
2022-12-26T01:05:23.249Z,32.22
2022-12-26T01:08:21.031Z,50.13
2022-12-26T01:10:48.092Z,51.38
2022-12-26T01:13:18.849Z,36.03
2022-12-26T01:15:52.378Z,30.92
2022-12-26T01:18:23.128Z,20.45
2022-12-26T01:20:54.040Z,20.75
2022-12-26T01:23:27.189Z,16.50
2022-12-26T01:26:18.985Z,17.38
2022-12-26T01:28:48.358Z,22.10
2022-12-26T01:31:19.082Z,26.65
2022-12-26T01:33:49.867Z,25.27
2022-12-26T01:36:23.250Z,20.83
2022-12-26T01:38:56.952Z,18.50
2022-12-26T01:41:28.153Z,15.90
2022-12-26T01:44:01.451Z,17.40
2022-12-26T01:46:36.933Z,19.60
2022-12-26T01:49:16.450Z,39.88
2022-12-26T01:51:51.961Z,56.03
2022-12-26T01:54:41.011Z,40.38
2022-12-26T01:57:18.878Z,29.42
2022-12-26T01:59:50.993Z,26.83
2022-12-26T02:02:23.440Z,33.30
2022-12-26T02:05:07.528Z,26.65
2022-12-26T02:07:41.386Z,24.75
2022-12-26T02:10:17.467Z,18.90
2022-12-26T02:12:48.417Z,26.50
2022-12-26T02:15:20.864Z,40.60
2022-12-26T02:17:51.398Z,32.80
2022-12-26T02:20:25.532Z,39.30
2022-12-26T02:23:30.341Z,29.63
2022-12-26T02:26:43.529Z,31.98
2022-12-26T02:29:46.288Z,23.52
2022-12-26T02:32:30.767Z,18.10
2022-12-26T02:35:09.806Z,31.15
2022-12-26T02:37:52.736Z,23.73
2022-12-26T02:40:36.229Z,26.35
2022-12-26T02:43:15.120Z,15.57
2022-12-26T02:46:02.944Z,12.25
2022-12-26T02:48:46.712Z,12.50
2022-12-26T02:51:36.281Z,13.80
2022-12-26T02:54:28.909Z,10.18
2022-12-26T02:57:15.187Z,11.10
2022-12-26T03:00:04.658Z,14.50
2022-12-26T03:02:56.314Z,13.85
2022-12-26T03:05:46.440Z,10.23
2022-12-26T03:08:37.147Z,13.63
2022-12-26T03:11:20.253Z,15.32
2022-12-26T03:13:53.767Z,14.88
2022-12-26T03:16:40.198Z,18.95
2022-12-26T03:19:15.323Z,23.58
2022-12-26T03:21:50.488Z,21.95
2022-12-26T03:24:21.111Z,18.23
2022-12-26T03:26:54.006Z,35.83
2022-12-26T03:29:39.319Z,23.23
2022-12-26T03:32:12.469Z,24.02
2022-12-26T03:34:42.822Z,15.68
2022-12-26T03:37:49.261Z,14.05
2022-12-26T03:40:48.390Z,12.82
2022-12-26T03:43:40.965Z,12.73
2022-12-26T03:46:32.505Z,11.02
2022-12-26T03:49:24.097Z,12.70
2022-12-26T03:52:14.936Z,12.02
2022-12-26T03:55:08.047Z,10.68
2022-12-26T03:57:56.525Z,10.60
2022-12-26T04:00:39.662Z,10.90
2022-12-26T04:03:27.673Z,10.07
2022-12-26T04:06:12.809Z,10.10
2022-12-26T04:09:01.781Z,9.17
2022-12-26T04:11:48.919Z,9.70
2022-12-26T04:14:43.741Z,12.38
2022-12-26T04:17:36.528Z,18.42
2022-12-26T04:20:17.048Z,14.32
2022-12-26T04:23:04.357Z,11.50
2022-12-26T04:25:51.919Z,12.15
2022-12-26T04:28:39.119Z,14.27
2022-12-26T04:31:27.517Z,16.52
2022-12-26T04:34:15.111Z,24.00
2022-12-26T04:37:05.322Z,17.42
2022-12-26T04:39:50.686Z,11.52
2022-12-26T04:42:35.741Z,16.17
2022-12-26T04:45:10.837Z,13.90
2022-12-26T04:48:01.328Z,17.27
2022-12-26T04:50:29.319Z,14.77
2022-12-26T04:53:03.065Z,16.50
2022-12-26T04:55:36.111Z,19.15
2022-12-26T04:58:07.109Z,19.55
2022-12-26T05:00:40.133Z,26.35
2022-12-26T05:03:24.351Z,23.38
2022-12-26T05:06:10.335Z,15.40
2022-12-26T05:11:24.683Z,13.43
2022-12-26T05:13:56.074Z,13.45
2022-12-26T05:16:57.713Z,13.10
2022-12-26T05:19:40.411Z,12.23
2022-12-26T05:22:27.166Z,9.98
2022-12-26T05:25:10.019Z,14.30
2022-12-26T05:27:56.556Z,13.73
2022-12-26T05:30:27.811Z,19.17
2022-12-26T05:33:13.239Z,20.40
2022-12-26T05:35:44.093Z,14.15
2022-12-26T05:38:14.693Z,28.50
2022-12-26T05:40:45.258Z,29.55
2022-12-26T05:43:15.798Z,21.25
2022-12-26T05:45:46.650Z,25.38
2022-12-26T05:48:20.748Z,18.27
2022-12-26T05:50:51.353Z,25.88
2022-12-26T05:53:22.358Z,20.48
2022-12-26T05:55:53.258Z,25.35
2022-12-26T05:58:23.832Z,24.23
2022-12-26T06:00:54.370Z,19.20
2022-12-26T06:03:30.055Z,21.95
2022-12-26T06:06:00.765Z,20.33
2022-12-26T06:08:31.358Z,19.00
2022-12-26T06:11:01.921Z,21.98
2022-12-26T06:13:32.505Z,21.98
2022-12-26T06:16:03.221Z,20.65
2022-12-26T06:18:36.711Z,21.55
2022-12-26T06:21:08.952Z,18.85
2022-12-26T06:23:40.531Z,26.58
2022-12-26T06:26:12.814Z,23.10
2022-12-26T06:28:44.690Z,24.67
2022-12-26T06:31:18.408Z,19.55
2022-12-26T06:33:52.294Z,22.38
2022-12-26T06:36:24.913Z,20.63
2022-12-26T06:38:57.152Z,24.80
2022-12-26T06:41:28.364Z,21.80
2022-12-26T06:43:59.012Z,21.33
2022-12-26T06:46:30.761Z,19.67
2022-12-26T06:49:03.927Z,25.63
2022-12-26T06:51:35.602Z,23.77
2022-12-26T06:54:06.326Z,25.70
2022-12-26T06:56:37.586Z,25.30
2022-12-26T06:59:09.237Z,46.58
2022-12-26T07:01:40.059Z,30.00
2022-12-26T07:04:15.662Z,32.10
2022-12-26T07:09:18.908Z,23.40
2022-12-26T07:11:51.232Z,35.72
2022-12-26T07:14:23.805Z,40.10
2022-12-26T07:16:54.435Z,34.50
2022-12-26T07:19:27.700Z,36.40
2022-12-26T07:21:58.381Z,42.65
2022-12-26T07:24:28.884Z,42.92
2022-12-26T07:26:59.488Z,36.55
2022-12-26T07:29:30.325Z,40.80
2022-12-26T07:32:01.225Z,67.72
2022-12-26T07:34:34.576Z,82.05
2022-12-26T07:37:05.366Z,79.70
2022-12-26T07:39:38.870Z,62.28
2022-12-26T07:42:09.512Z,66.93
2022-12-26T07:44:40.491Z,62.67
2022-12-26T07:47:12.021Z,57.35
2022-12-26T07:49:45.095Z,62.75
2022-12-26T07:52:15.754Z,62.67
2022-12-26T07:54:46.317Z,51.90
2022-12-26T07:57:46.709Z,49.25
2022-12-26T08:00:08.743Z,48.58
2022-12-26T08:02:45.204Z,49.17
2022-12-26T08:05:18.546Z,50.63
2022-12-26T08:07:50.449Z,33.88
2022-12-26T08:10:21.420Z,50.38
2022-12-26T08:12:52.234Z,55.03
2022-12-26T08:15:22.873Z,30.27
2022-12-26T08:17:54.259Z,42.72
2022-12-26T08:20:27.625Z,46.00
2022-12-26T08:25:48.716Z,47.97
2022-12-26T08:28:19.529Z,39.03
2022-12-26T08:30:50.268Z,27.02
2022-12-26T08:33:21.060Z,45.53
2022-12-26T08:35:54.558Z,33.80
2022-12-26T08:38:29.781Z,31.30
2022-12-26T08:41:02.079Z,44.78
2022-12-26T08:44:24.423Z,27.02
2022-12-26T08:46:25.212Z,59.97
2022-12-26T08:48:56.514Z,40.63
2022-12-26T08:51:29.625Z,36.30
2022-12-26T08:54:00.224Z,44.03
2022-12-26T08:56:31.754Z,63.35
2022-12-26T08:59:02.442Z,229.55
2022-12-26T09:01:34.481Z,99.78
2022-12-26T09:04:07.261Z,69.93
2022-12-26T09:06:42.427Z,56.35
2022-12-26T09:09:14.438Z,50.78
2022-12-26T09:11:45.467Z,59.97
2022-12-26T09:14:16.081Z,49.00
2022-12-26T09:16:50.795Z,62.50
2022-12-26T09:19:23.797Z,107.07
2022-12-26T09:22:17.053Z,81.30
2022-12-26T09:24:47.718Z,77.20
2022-12-26T09:27:19.485Z,55.30
2022-12-26T09:29:50.003Z,48.72
2022-12-26T09:32:20.459Z,57.67
2022-12-26T09:34:52.293Z,83.95
2022-12-26T09:37:25.404Z,76.32
2022-12-26T09:39:55.928Z,56.30
2022-12-26T09:42:36.684Z,40.53
2022-12-26T09:45:14.479Z,47.15
2022-12-26T09:47:54.826Z,49.03
2022-12-26T09:50:31.268Z,40.70
2022-12-26T09:53:08.477Z,62.70
2022-12-26T09:55:45.531Z,50.15
2022-12-26T09:58:25.119Z,96.80
2022-12-26T10:00:59.060Z,72.80
2022-12-26T10:03:30.764Z,48.58
2022-12-26T10:06:10.479Z,38.30
2022-12-26T10:09:03.013Z,33.47
2022-12-26T10:11:45.178Z,29.45
2022-12-26T10:14:22.258Z,36.08
2022-12-26T10:17:01.117Z,35.33
2022-12-26T10:19:52.683Z,29.45
2022-12-26T10:22:40.135Z,27.38
2022-12-26T10:25:19.937Z,31.17
2022-12-26T10:27:53.387Z,31.98
2022-12-26T10:30:26.486Z,30.60
2022-12-26T10:33:02.753Z,31.73
2022-12-26T10:35:36.807Z,31.20
2022-12-26T10:38:13.847Z,19.30
2022-12-26T10:40:50.631Z,13.73
2022-12-26T10:43:29.945Z,19.23
2022-12-26T10:46:31.309Z,16.90
2022-12-26T10:49:02.618Z,13.40
2022-12-26T10:51:33.892Z,21.92
2022-12-26T10:54:04.485Z,25.58
2022-12-26T10:56:38.140Z,17.00
2022-12-26T10:59:14.636Z,25.77
2022-12-26T11:01:47.882Z,19.35
2022-12-26T11:07:14.392Z,25.08
2022-12-26T11:09:47.510Z,21.35
2022-12-26T11:12:28.556Z,23.00
2022-12-26T11:15:05.383Z,31.38
2022-12-26T11:17:43.367Z,30.10
2022-12-26T11:20:32.064Z,8.57
2022-12-26T11:23:27.983Z,6.20
2022-12-26T11:25:59.702Z,8.55
2022-12-26T11:28:36.342Z,5.57
2022-12-26T11:31:09.252Z,10.05
2022-12-26T11:33:45.878Z,6.13
2022-12-26T11:36:24.105Z,8.20
2022-12-26T11:38:58.776Z,7.72
2022-12-26T11:41:44.217Z,7.72
2022-12-26T11:44:30.657Z,15.68
2022-12-26T11:47:03.991Z,10.68
2022-12-26T11:49:37.749Z,4.35
2022-12-26T11:52:40.397Z,5.13
2022-12-26T11:55:31.010Z,4.97
2022-12-26T11:58:06.646Z,4.82
2022-12-26T12:00:42.074Z,5.43
2022-12-26T12:05:54.819Z,8.52
2022-12-26T12:08:34.853Z,8.73
2022-12-26T12:11:19.659Z,10.35
2022-12-26T12:14:15.106Z,6.30
2022-12-26T12:17:00.079Z,5.55
2022-12-26T12:19:49.650Z,4.60
2022-12-26T12:22:37.703Z,6.43
2022-12-26T12:25:30.080Z,4.85
2022-12-26T12:28:07.346Z,9.55
2022-12-26T12:30:44.772Z,8.65
2022-12-26T12:33:38.219Z,8.52
2022-12-26T12:36:15.321Z,10.27
2022-12-26T12:39:00.105Z,10.18
2022-12-26T12:42:10.864Z,4.70
2022-12-26T12:45:07.267Z,8.75
2022-12-26T12:47:50.407Z,15.75
2022-12-26T12:50:32.365Z,7.05
2022-12-26T12:53:13.892Z,7.50
2022-12-26T12:56:11.362Z,11.02
2022-12-26T12:58:49.593Z,13.35
2022-12-26T13:01:25.004Z,15.23
2022-12-26T13:04:02.746Z,27.15
2022-12-26T13:06:42.082Z,23.08
2022-12-26T13:09:20.317Z,33.08
2022-12-26T13:11:58.611Z,23.08
2022-12-26T13:14:34.499Z,18.40
2022-12-26T13:17:11.886Z,19.27
2022-12-26T13:19:51.757Z,22.02
2022-12-26T13:22:50.247Z,21.52
2022-12-26T13:25:20.388Z,16.80
2022-12-26T13:27:55.034Z,11.75
2022-12-26T13:30:25.797Z,15.20
2022-12-26T13:32:59.828Z,24.90
2022-12-26T13:36:05.610Z,21.88
2022-12-26T13:39:14.514Z,17.83
2022-12-26T13:42:06.411Z,28.08
2022-12-26T13:44:37.059Z,32.67
2022-12-26T13:47:08.210Z,23.35
2022-12-26T13:49:40.236Z,19.30
2022-12-26T13:52:36.903Z,16.23
2022-12-26T13:55:35.031Z,33.33
2022-12-26T13:58:38.293Z,41.60
2022-12-26T14:01:20.377Z,26.65
2022-12-26T14:04:09.832Z,29.65
2022-12-26T14:07:02.969Z,27.15
2022-12-26T14:10:07.071Z,53.33
2022-12-26T14:12:55.221Z,56.40
2022-12-26T14:15:37.787Z,70.05
2022-12-26T14:18:38.605Z,59.28
2022-12-26T14:21:37.875Z,68.40
2022-12-26T14:24:21.792Z,54.30
2022-12-26T14:27:01.271Z,49.05
2022-12-26T14:29:41.221Z,61.72
2022-12-26T14:32:48.270Z,83.93
2022-12-26T14:35:28.378Z,99.65
2022-12-26T14:38:08.575Z,90.30
2022-12-26T14:40:41.197Z,88.93
2022-12-26T14:43:28.027Z,81.07
2022-12-26T14:45:59.161Z,92.53
2022-12-26T14:48:58.944Z,81.20
2022-12-26T14:51:43.523Z,58.08
2022-12-26T14:54:37.249Z,53.17
2022-12-26T14:57:49.131Z,52.40
2022-12-26T15:00:39.449Z,52.25
2022-12-26T15:03:39.859Z,40.00
2022-12-26T15:06:52.378Z,45.50
2022-12-26T15:09:51.447Z,52.35
2022-12-26T15:12:46.617Z,54.22
2022-12-26T15:15:34.684Z,75.65
2022-12-26T15:18:43.966Z,66.57
2022-12-26T15:21:41.860Z,74.72
2022-12-26T15:25:18.019Z,55.78
2022-12-26T15:28:15.369Z,58.13
2022-12-26T15:31:08.111Z,53.67
2022-12-26T15:33:43.650Z,56.80
2022-12-26T15:36:25.092Z,74.68
2022-12-26T15:39:01.923Z,108.22
2022-12-26T15:41:42.957Z,111.57
2022-12-26T15:44:23.862Z,86.28
2022-12-26T15:47:05.798Z,80.55
2022-12-26T15:49:52.000Z,69.47
2022-12-26T15:52:36.234Z,68.25
2022-12-26T15:55:31.278Z,76.78
2022-12-26T15:58:16.227Z,60.60
2022-12-26T16:00:52.636Z,63.13
2022-12-26T16:03:29.873Z,61.85
2022-12-26T16:06:12.812Z,58.60
2022-12-26T16:09:03.887Z,58.90
2022-12-26T16:11:52.155Z,79.55
2022-12-26T16:14:37.619Z,102.90
2022-12-26T16:17:22.834Z,146.38
2022-12-26T16:19:54.974Z,112.38
2022-12-26T16:22:46.593Z,132.48
2022-12-26T16:25:19.942Z,81.53
2022-12-26T16:27:53.000Z,119.38
2022-12-26T16:30:28.393Z,117.00
2022-12-26T16:33:00.387Z,88.10
2022-12-26T16:35:34.864Z,91.88
2022-12-26T16:38:08.409Z,75.35
2022-12-26T16:40:45.805Z,87.85
2022-12-26T16:43:29.239Z,98.93
2022-12-26T16:46:06.342Z,94.60
2022-12-26T16:48:39.202Z,102.15
2022-12-26T16:51:30.974Z,90.70
2022-12-26T16:54:18.429Z,80.75
2022-12-26T16:56:52.515Z,63.25
2022-12-26T16:59:26.473Z,53.72
2022-12-26T17:02:02.675Z,52.40
2022-12-26T17:04:34.013Z,56.08
2022-12-26T17:07:08.777Z,65.55
2022-12-26T17:09:44.515Z,63.45
2022-12-26T17:14:55.090Z,64.78
2022-12-26T17:17:44.974Z,70.88
2022-12-26T17:20:36.008Z,63.03
2022-12-26T17:23:35.245Z,64.57
2022-12-26T17:26:24.261Z,65.63
2022-12-26T17:28:55.957Z,82.50
2022-12-26T17:31:35.322Z,59.95
2022-12-26T17:34:16.782Z,62.15
2022-12-26T17:39:38.477Z,64.32
2022-12-26T17:42:09.684Z,48.25
2022-12-26T17:44:42.349Z,52.42
2022-12-26T17:47:23.067Z,49.88
2022-12-26T17:49:58.261Z,53.90
2022-12-26T17:52:31.862Z,63.75
2022-12-26T17:55:03.089Z,58.70
2022-12-26T17:57:34.705Z,62.40
2022-12-26T18:00:05.874Z,81.97
2022-12-26T18:02:37.409Z,57.08
2022-12-26T18:05:11.891Z,57.90
2022-12-26T18:07:43.410Z,56.22
2022-12-26T18:10:20.384Z,57.28
2022-12-26T18:12:51.836Z,54.92
2022-12-26T18:15:23.418Z,62.22
2022-12-26T18:17:55.953Z,70.47
2022-12-26T18:20:31.676Z,89.05
2022-12-26T18:23:02.461Z,60.92
2022-12-26T18:25:33.243Z,112.85
2022-12-26T18:28:03.930Z,85.53
2022-12-26T18:30:34.592Z,140.48
2022-12-26T18:33:05.461Z,109.72
2022-12-26T18:35:38.874Z,112.40
2022-12-26T18:38:10.452Z,92.15
2022-12-26T18:40:44.403Z,73.82
2022-12-26T18:43:16.923Z,50.13
2022-12-26T18:45:48.091Z,48.30
2022-12-26T18:48:20.379Z,67.85
2022-12-26T18:50:53.663Z,67.63
2022-12-26T18:53:24.359Z,70.65
2022-12-26T18:55:56.156Z,112.20
2022-12-26T18:58:28.452Z,72.72
2022-12-26T19:00:59.237Z,72.47
2022-12-26T19:03:30.207Z,82.43
2022-12-26T19:06:04.101Z,82.15
2022-12-26T19:08:34.902Z,113.78
2022-12-26T19:11:05.500Z,104.28
2022-12-26T19:13:36.514Z,114.10
2022-12-26T19:16:08.361Z,127.28
2022-12-26T19:18:40.095Z,67.20
2022-12-26T19:21:17.801Z,48.95
2022-12-26T19:23:50.478Z,46.35
2022-12-26T19:26:22.596Z,42.47
2022-12-26T19:28:55.145Z,53.55
2022-12-26T19:31:27.268Z,63.15
2022-12-26T19:34:00.835Z,75.82
2022-12-26T19:36:34.486Z,86.35
2022-12-26T19:39:05.210Z,79.72
2022-12-26T19:41:35.708Z,60.47
2022-12-26T19:44:06.327Z,64.07
2022-12-26T19:46:38.033Z,55.80
2022-12-26T19:49:08.600Z,60.42
2022-12-26T19:51:41.792Z,57.85
2022-12-26T19:54:12.471Z,54.95
2022-12-26T19:56:43.183Z,59.53
2022-12-26T19:59:13.990Z,70.57
2022-12-26T20:01:45.091Z,104.57
2022-12-26T20:04:16.194Z,64.38
2022-12-26T20:06:49.863Z,73.25
2022-12-26T20:09:20.724Z,117.88
2022-12-26T20:11:54.245Z,117.03
2022-12-26T20:14:26.536Z,127.38
2022-12-26T20:17:07.808Z,106.60
2022-12-26T20:19:42.094Z,112.63
2022-12-26T20:22:15.606Z,92.13
2022-12-26T20:24:47.067Z,68.45
2022-12-26T20:27:18.260Z,72.40
2022-12-26T20:29:48.976Z,47.28
2022-12-26T20:32:19.984Z,52.95
2022-12-26T20:34:50.673Z,43.05
2022-12-26T20:37:23.961Z,49.05
2022-12-26T20:39:54.769Z,49.53
2022-12-26T20:42:25.315Z,75.45
2022-12-26T20:44:55.927Z,54.72
2022-12-26T20:47:26.501Z,46.63
2022-12-26T20:49:57.349Z,42.00
2022-12-26T20:52:30.585Z,47.28
2022-12-26T20:55:01.109Z,48.22
2022-12-26T20:57:32.031Z,43.58
2022-12-26T21:00:02.688Z,42.60
2022-12-26T21:02:37.487Z,49.50
2022-12-26T21:05:09.755Z,43.83
2022-12-26T21:07:42.903Z,37.33
2022-12-26T21:10:13.999Z,54.53
2022-12-26T21:12:44.595Z,50.63
2022-12-26T21:15:15.208Z,60.10
2022-12-26T21:17:45.736Z,56.00
2022-12-26T21:20:17.786Z,41.10
2022-12-26T21:22:50.927Z,39.40
2022-12-26T21:25:21.791Z,40.72
2022-12-26T21:27:57.389Z,42.17
2022-12-26T21:30:30.634Z,44.38
2022-12-26T21:33:01.195Z,40.42
2022-12-26T21:35:31.872Z,40.60
2022-12-26T21:38:05.112Z,32.75
2022-12-26T21:40:35.786Z,31.73
2022-12-26T21:43:06.347Z,28.67
2022-12-26T21:45:37.113Z,40.95
2022-12-26T21:48:07.842Z,49.95
2022-12-26T21:50:38.731Z,31.55
2022-12-26T21:53:11.836Z,30.38
2022-12-26T21:55:39.796Z,27.55
2022-12-26T21:58:11.096Z,28.35
2022-12-26T22:00:42.656Z,28.75
2022-12-26T22:03:25.556Z,26.00
2022-12-26T22:05:56.394Z,30.08
2022-12-26T22:08:29.578Z,25.52
2022-12-26T22:11:12.319Z,29.73
2022-12-26T22:13:45.812Z,32.22
2022-12-26T22:16:16.650Z,31.08
2022-12-26T22:18:49.143Z,35.17
2022-12-26T22:21:21.023Z,32.13
2022-12-26T22:23:55.028Z,32.90
2022-12-26T22:26:26.409Z,23.15
2022-12-26T22:28:57.371Z,22.25
2022-12-26T22:31:31.949Z,20.02
2022-12-26T22:34:04.285Z,21.73
2022-12-26T22:36:35.255Z,27.65
2022-12-26T22:39:08.391Z,25.10
2022-12-26T22:41:38.872Z,26.23
2022-12-26T22:44:15.991Z,28.13
2022-12-26T22:46:46.549Z,32.10
2022-12-26T22:49:17.190Z,46.17
2022-12-26T22:51:47.757Z,25.30
2022-12-26T22:54:21.030Z,22.23
2022-12-26T22:56:51.599Z,21.90
2022-12-26T22:59:49.144Z,21.45
2022-12-26T23:02:12.886Z,19.13
2022-12-26T23:04:44.141Z,25.25
2022-12-26T23:07:18.101Z,22.70
2022-12-26T23:09:52.125Z,20.25
2022-12-26T23:12:47.490Z,24.77
2022-12-26T23:15:20.854Z,15.77
2022-12-26T23:18:10.461Z,21.88
2022-12-26T23:20:55.026Z,21.63
2022-12-26T23:23:26.467Z,18.73
2022-12-26T23:26:02.934Z,15.35
2022-12-26T23:28:45.810Z,20.35
2022-12-26T23:31:16.766Z,19.33
2022-12-26T23:33:47.313Z,21.38
2022-12-26T23:36:17.988Z,23.02
2022-12-26T23:38:48.457Z,30.02
2022-12-26T23:41:21.728Z,23.45
2022-12-26T23:43:52.304Z,18.77
2022-12-26T23:46:22.975Z,21.63
2022-12-26T23:48:53.610Z,18.58
2022-12-26T23:51:24.219Z,21.33
2022-12-26T23:53:54.780Z,20.77
2022-12-26T23:56:29.151Z,22.55
2022-12-26T23:59:00.440Z,17.40
